createdAt,value
2023-05-21T00:01:08.036Z,3.80
2023-05-21T00:03:36.244Z,6.53
2023-05-21T00:06:03.929Z,5.28
2023-05-21T00:08:31.140Z,6.80
2023-05-21T00:10:58.030Z,5.50
2023-05-21T00:13:24.941Z,6.00
2023-05-21T00:15:51.816Z,6.30
2023-05-21T00:18:18.646Z,4.93
2023-05-21T00:20:45.770Z,4.20
2023-05-21T00:23:12.696Z,4.18
2023-05-21T00:25:39.513Z,7.37
2023-05-21T00:28:06.428Z,5.60
2023-05-21T00:30:33.188Z,4.50
2023-05-21T00:33:02.875Z,6.38
2023-05-21T00:35:30.057Z,5.35
2023-05-21T00:37:57.217Z,4.67
2023-05-21T00:40:24.267Z,5.07
2023-05-21T00:42:51.106Z,4.65
2023-05-21T00:45:17.958Z,7.82
2023-05-21T00:47:45.913Z,4.80
2023-05-21T00:50:15.163Z,10.90
2023-05-21T00:52:45.708Z,5.93
2023-05-21T00:55:12.914Z,5.00
2023-05-21T00:57:40.390Z,5.78
2023-05-21T01:00:08.884Z,7.50
2023-05-21T01:02:37.243Z,7.30
2023-05-21T01:05:07.585Z,9.15
2023-05-21T01:07:36.234Z,6.18
2023-05-21T01:10:05.416Z,8.75
2023-05-21T01:12:33.847Z,7.20
2023-05-21T01:15:05.476Z,5.80
2023-05-21T01:17:34.250Z,5.00
2023-05-21T01:20:01.685Z,6.50
2023-05-21T01:22:32.310Z,10.73
2023-05-21T01:25:02.614Z,5.22
2023-05-21T01:27:29.591Z,9.10
2023-05-21T01:29:57.087Z,6.53
2023-05-21T01:32:35.017Z,7.22
2023-05-21T01:35:09.198Z,5.97
2023-05-21T01:37:46.861Z,5.82
2023-05-21T01:40:59.814Z,6.70
2023-05-21T01:43:29.259Z,7.00
2023-05-21T01:45:57.350Z,6.03
2023-05-21T01:48:27.148Z,6.53
2023-05-21T01:50:55.926Z,6.95
2023-05-21T01:53:22.785Z,6.00
2023-05-21T01:55:49.775Z,7.13
2023-05-21T01:58:17.168Z,8.50
2023-05-21T02:00:45.360Z,6.85
2023-05-21T02:03:12.865Z,6.65
2023-05-21T02:05:39.707Z,6.47
2023-05-21T02:08:08.396Z,8.13
2023-05-21T02:10:38.472Z,5.43
2023-05-21T02:13:05.207Z,8.98
2023-05-21T02:15:34.657Z,8.25
2023-05-21T02:18:02.399Z,6.10
2023-05-21T02:20:30.215Z,7.15
2023-05-21T02:22:57.394Z,9.38
2023-05-21T02:25:24.223Z,7.72
2023-05-21T02:27:54.117Z,9.18
2023-05-21T02:30:21.130Z,6.03
2023-05-21T02:32:48.880Z,6.60
2023-05-21T02:35:16.275Z,7.07
2023-05-21T02:37:44.093Z,7.53
2023-05-21T02:40:11.655Z,8.82
2023-05-21T02:42:40.279Z,9.10
2023-05-21T02:45:11.836Z,7.13
2023-05-21T02:47:41.335Z,7.22
2023-05-21T02:50:09.260Z,7.45
2023-05-21T02:52:43.227Z,7.80
2023-05-21T02:55:10.502Z,9.03
2023-05-21T02:57:37.308Z,8.15
2023-05-21T03:00:05.984Z,7.60
2023-05-21T03:02:33.170Z,9.30
2023-05-21T03:05:00.669Z,8.63
2023-05-21T03:07:27.533Z,7.77
2023-05-21T03:09:54.611Z,7.30
2023-05-21T03:12:21.423Z,8.05
2023-05-21T03:14:51.251Z,11.25
2023-05-21T03:17:18.851Z,6.55
2023-05-21T03:19:45.642Z,6.43
2023-05-21T03:22:12.516Z,7.80
2023-05-21T03:24:39.562Z,6.13
2023-05-21T03:27:07.258Z,7.80
2023-05-21T03:29:34.849Z,8.20
2023-05-21T03:32:03.018Z,7.50
2023-05-21T03:34:31.280Z,6.47
2023-05-21T03:36:58.872Z,10.63
2023-05-21T03:39:26.303Z,8.80
2023-05-21T03:41:54.871Z,6.68
2023-05-21T03:44:41.114Z,6.80
2023-05-21T03:47:46.500Z,8.18
2023-05-21T03:50:13.793Z,11.43
2023-05-21T03:52:40.687Z,9.32
2023-05-21T03:55:07.934Z,6.03
2023-05-21T03:57:34.848Z,7.63
2023-05-21T04:00:01.841Z,9.43
2023-05-21T04:02:32.582Z,8.68
2023-05-21T04:04:59.695Z,7.95
2023-05-21T04:07:27.139Z,10.60
2023-05-21T04:09:53.962Z,9.77
2023-05-21T04:12:20.840Z,7.65
2023-05-21T04:14:48.241Z,9.45
2023-05-21T04:17:15.031Z,9.43
2023-05-21T04:19:41.971Z,9.13
2023-05-21T04:22:11.673Z,7.57
2023-05-21T04:24:39.229Z,7.40
2023-05-21T04:27:11.005Z,9.38
2023-05-21T04:29:42.462Z,7.70
2023-05-21T04:32:09.460Z,7.10
2023-05-21T04:34:36.219Z,8.60
2023-05-21T04:37:02.989Z,6.90
2023-05-21T04:39:31.525Z,7.47
2023-05-21T04:41:58.325Z,9.10
2023-05-21T04:44:25.889Z,7.63
2023-05-21T04:46:54.672Z,7.63
2023-05-21T04:49:21.483Z,7.32
2023-05-21T04:51:49.375Z,9.30
2023-05-21T04:54:16.498Z,11.73
2023-05-21T04:56:43.768Z,7.38
2023-05-21T04:59:10.486Z,8.93
2023-05-21T05:01:38.497Z,9.02
2023-05-21T05:04:06.076Z,11.45
2023-05-21T05:06:33.027Z,9.65
2023-05-21T05:08:59.793Z,7.88
2023-05-21T05:11:26.808Z,8.27
2023-05-21T05:13:53.767Z,7.80
2023-05-21T05:16:25.258Z,8.65
2023-05-21T05:18:53.294Z,9.98
2023-05-21T05:21:23.464Z,8.23
2023-05-21T05:23:50.262Z,7.30
2023-05-21T05:26:17.740Z,9.45
2023-05-21T05:28:45.916Z,9.52
2023-05-21T05:31:13.011Z,9.25
2023-05-21T05:33:41.357Z,8.27
2023-05-21T05:36:08.343Z,8.93
2023-05-21T05:38:36.235Z,8.30
2023-05-21T05:41:03.248Z,8.55
2023-05-21T05:43:31.127Z,7.47
2023-05-21T05:46:00.104Z,6.80
2023-05-21T05:48:27.102Z,7.97
2023-05-21T05:50:55.960Z,7.00
2023-05-21T05:53:25.003Z,9.18
2023-05-21T05:55:51.955Z,10.90
2023-05-21T05:58:18.885Z,9.77
2023-05-21T06:01:07.454Z,9.60
2023-05-21T06:03:34.514Z,8.30
2023-05-21T06:06:08.934Z,9.32
2023-05-21T06:08:38.050Z,9.82
2023-05-21T06:11:05.150Z,10.45
2023-05-21T06:13:32.069Z,7.07
2023-05-21T06:15:58.814Z,8.05
2023-05-21T06:18:25.635Z,8.02
2023-05-21T06:20:52.662Z,26.25
2023-05-21T06:23:20.362Z,8.90
2023-05-21T06:25:47.213Z,8.17
2023-05-21T06:28:14.383Z,9.10
2023-05-21T06:30:41.232Z,10.15
2023-05-21T06:33:08.374Z,9.27
2023-05-21T06:35:37.175Z,11.20
2023-05-21T06:38:04.305Z,10.43
2023-05-21T06:40:31.117Z,8.10
2023-05-21T06:42:59.872Z,8.60
2023-05-21T06:45:52.842Z,11.23
2023-05-21T06:48:37.467Z,9.73
2023-05-21T06:51:04.340Z,10.50
2023-05-21T06:53:31.169Z,9.43
2023-05-21T06:55:57.974Z,8.90
2023-05-21T06:58:42.308Z,10.07
2023-05-21T07:01:09.129Z,11.65
2023-05-21T07:03:36.445Z,10.20
2023-05-21T07:06:03.444Z,9.77
2023-05-21T07:08:30.754Z,9.43
2023-05-21T07:10:58.791Z,9.40
2023-05-21T07:13:25.921Z,9.63
2023-05-21T07:15:53.308Z,9.97
2023-05-21T07:18:20.124Z,9.45
2023-05-21T07:20:47.008Z,9.85
2023-05-21T07:23:15.856Z,11.02
2023-05-21T07:25:42.581Z,9.88
2023-05-21T07:28:09.409Z,9.67
2023-05-21T07:30:36.673Z,10.10
2023-05-21T07:33:07.521Z,10.48
2023-05-21T07:35:34.727Z,9.80
2023-05-21T07:38:03.787Z,10.50
2023-05-21T07:40:30.802Z,11.40
2023-05-21T07:42:57.614Z,9.05
2023-05-21T07:45:28.457Z,9.43
2023-05-21T07:47:55.701Z,8.13
2023-05-21T07:50:22.772Z,7.72
2023-05-21T07:52:49.625Z,10.10
2023-05-21T07:55:16.550Z,11.20
2023-05-21T07:57:43.802Z,7.28
2023-05-21T08:00:14.274Z,9.90
2023-05-21T08:02:50.288Z,7.88
2023-05-21T08:05:17.325Z,9.77
2023-05-21T08:07:44.846Z,9.15
2023-05-21T08:10:11.596Z,9.10
2023-05-21T08:12:38.353Z,10.20
2023-05-21T08:15:06.914Z,8.68
2023-05-21T08:17:37.830Z,9.20
2023-05-21T08:20:05.038Z,9.88
2023-05-21T08:22:32.800Z,10.27
2023-05-21T08:25:00.005Z,9.63
2023-05-21T08:27:26.772Z,8.88
2023-05-21T08:29:53.530Z,7.93
2023-05-21T08:32:20.558Z,8.45
2023-05-21T08:34:47.331Z,10.15
2023-05-21T08:37:32.975Z,8.95
2023-05-21T08:40:06.432Z,10.82
2023-05-21T08:42:46.102Z,10.27
2023-05-21T08:45:38.059Z,10.38
2023-05-21T08:48:06.432Z,11.07
2023-05-21T08:50:34.819Z,10.60
2023-05-21T08:53:19.472Z,11.90
2023-05-21T08:55:54.063Z,8.43
2023-05-21T08:58:22.139Z,10.85
2023-05-21T09:00:49.656Z,9.80
2023-05-21T09:03:16.956Z,9.07
2023-05-21T09:05:45.691Z,9.00
2023-05-21T09:08:18.378Z,10.07
2023-05-21T09:10:53.203Z,9.40
2023-05-21T09:13:26.142Z,13.65
2023-05-21T09:15:53.328Z,9.88
2023-05-21T09:18:21.756Z,9.43
2023-05-21T09:21:28.304Z,11.37
2023-05-21T09:24:02.581Z,11.40
2023-05-21T09:26:29.921Z,8.95
2023-05-21T09:29:01.528Z,10.10
2023-05-21T09:31:29.844Z,9.60
2023-05-21T09:33:56.730Z,9.23
2023-05-21T09:36:25.606Z,8.68
2023-05-21T09:38:53.496Z,11.68
2023-05-21T09:41:22.376Z,8.70
2023-05-21T09:43:49.570Z,10.82
2023-05-21T09:46:25.820Z,9.53
2023-05-21T09:48:52.624Z,8.38
2023-05-21T09:51:21.304Z,9.45
2023-05-21T09:53:57.698Z,10.05
2023-05-21T09:56:26.425Z,9.70
2023-05-21T09:58:57.664Z,9.87
2023-05-21T10:01:25.259Z,9.35
2023-05-21T10:03:57.083Z,9.07
2023-05-21T10:06:26.621Z,9.85
2023-05-21T10:08:56.737Z,8.60
2023-05-21T10:11:27.200Z,11.90
2023-05-21T10:14:16.293Z,12.85
2023-05-21T10:16:44.327Z,8.15
2023-05-21T10:19:12.427Z,9.27
2023-05-21T10:21:40.903Z,9.95
2023-05-21T10:24:11.241Z,10.67
2023-05-21T10:26:39.533Z,9.02
2023-05-21T10:29:07.874Z,8.65
2023-05-21T10:31:35.982Z,9.65
2023-05-21T10:34:06.025Z,8.60
2023-05-21T10:36:34.255Z,8.30
2023-05-21T10:39:02.593Z,7.55
2023-05-21T10:41:37.771Z,9.85
2023-05-21T10:44:18.081Z,8.25
2023-05-21T10:47:02.409Z,9.48
2023-05-21T10:49:41.901Z,8.30
2023-05-21T10:52:37.280Z,10.23
2023-05-21T10:55:52.317Z,8.70
2023-05-21T10:58:40.767Z,10.02
2023-05-21T11:01:08.099Z,10.52
2023-05-21T11:03:37.721Z,8.10
2023-05-21T11:06:06.404Z,8.85
2023-05-21T11:08:37.243Z,10.57
2023-05-21T11:11:05.008Z,10.18
2023-05-21T11:13:51.414Z,9.88
2023-05-21T11:16:18.589Z,10.10
2023-05-21T11:18:45.963Z,12.35
2023-05-21T11:21:16.992Z,10.73
2023-05-21T11:23:59.231Z,11.68
2023-05-21T11:26:28.111Z,12.38
2023-05-21T11:29:11.827Z,10.20
2023-05-21T11:31:39.129Z,11.77
2023-05-21T11:34:18.839Z,10.50
2023-05-21T11:36:49.405Z,15.07
2023-05-21T11:39:21.895Z,12.48
2023-05-21T11:41:59.469Z,10.60
2023-05-21T11:44:40.042Z,10.48
2023-05-21T11:47:11.433Z,15.18
2023-05-21T11:49:39.086Z,10.02
2023-05-21T11:52:07.608Z,14.80
2023-05-21T11:54:50.744Z,13.97
2023-05-21T11:57:19.230Z,14.25
2023-05-21T11:59:47.052Z,12.15
2023-05-21T12:02:18.675Z,11.18
2023-05-21T12:04:46.883Z,10.13
2023-05-21T12:07:15.536Z,10.13
2023-05-21T12:09:44.135Z,12.68
2023-05-21T12:12:16.061Z,9.73
2023-05-21T12:14:47.853Z,9.57
2023-05-21T12:17:18.903Z,9.60
2023-05-21T12:19:46.750Z,12.90
2023-05-21T12:22:15.436Z,10.32
2023-05-21T12:24:45.963Z,12.82
2023-05-21T12:27:13.638Z,12.65
2023-05-21T12:29:43.283Z,13.25
2023-05-21T12:32:12.995Z,11.80
2023-05-21T12:34:46.091Z,10.40
2023-05-21T12:37:16.972Z,10.52
2023-05-21T12:39:44.881Z,12.48
2023-05-21T12:42:12.361Z,11.80
2023-05-21T12:44:49.249Z,11.87
2023-05-21T12:47:16.330Z,12.95
2023-05-21T12:49:45.673Z,13.82
2023-05-21T12:52:13.357Z,14.05
2023-05-21T12:54:43.109Z,14.13
2023-05-21T12:57:17.516Z,12.17
2023-05-21T12:59:49.102Z,12.15
2023-05-21T13:02:40.502Z,10.75
2023-05-21T13:05:09.110Z,12.18
2023-05-21T13:07:38.201Z,12.43
2023-05-21T13:10:06.247Z,14.40
2023-05-21T13:12:34.282Z,16.10
2023-05-21T13:15:03.314Z,13.98
2023-05-21T13:17:30.596Z,13.70
2023-05-21T13:20:16.737Z,14.82
2023-05-21T13:22:53.173Z,11.00
2023-05-21T13:25:22.300Z,12.35
2023-05-21T13:27:50.844Z,11.65
2023-05-21T13:30:18.668Z,12.88
2023-05-21T13:32:45.893Z,10.15
2023-05-21T13:35:13.303Z,14.97
2023-05-21T13:37:40.855Z,12.98
2023-05-21T13:40:14.371Z,14.52
2023-05-21T13:42:41.699Z,13.93
2023-05-21T13:45:10.895Z,11.77
2023-05-21T13:47:40.304Z,16.90
2023-05-21T13:50:08.386Z,15.88
2023-05-21T13:52:35.494Z,11.75
2023-05-21T13:55:02.420Z,15.27
2023-05-21T13:57:30.852Z,11.63
2023-05-21T13:59:58.939Z,12.03
2023-05-21T14:02:26.228Z,12.32
2023-05-21T14:04:53.774Z,12.00
2023-05-21T14:07:21.393Z,12.13
2023-05-21T14:09:48.255Z,15.02
2023-05-21T14:12:14.979Z,14.00
2023-05-21T14:14:42.046Z,11.73
2023-05-21T14:17:08.887Z,11.48
2023-05-21T14:19:35.980Z,17.00
2023-05-21T14:22:02.863Z,13.40
2023-05-21T14:24:29.645Z,11.83
2023-05-21T14:26:56.369Z,11.75
2023-05-21T14:29:23.329Z,13.38
2023-05-21T14:31:50.159Z,14.75
2023-05-21T14:34:17.614Z,14.48
2023-05-21T14:36:44.546Z,13.20
2023-05-21T14:39:11.520Z,11.63
2023-05-21T14:41:41.234Z,16.60
2023-05-21T14:44:08.208Z,13.57
2023-05-21T14:46:35.343Z,12.98
2023-05-21T14:49:03.664Z,13.20
2023-05-21T14:51:31.608Z,14.18
2023-05-21T14:53:58.598Z,12.00
2023-05-21T14:56:28.375Z,12.27
2023-05-21T14:58:55.537Z,14.85
2023-05-21T15:01:22.490Z,12.53
2023-05-21T15:03:49.709Z,13.07
2023-05-21T15:06:16.828Z,13.00
2023-05-21T15:08:43.630Z,11.40
2023-05-21T15:11:10.383Z,13.95
2023-05-21T15:13:38.115Z,14.17
2023-05-21T15:16:05.229Z,11.90
2023-05-21T15:18:32.032Z,12.52
2023-05-21T15:20:59.202Z,13.18
2023-05-21T15:23:25.975Z,12.15
2023-05-21T15:25:52.954Z,11.87
2023-05-21T15:28:20.054Z,11.43
2023-05-21T15:30:46.898Z,8.18
2023-05-21T15:33:13.788Z,14.40
2023-05-21T15:35:41.187Z,12.68
2023-05-21T15:38:08.299Z,10.77
2023-05-21T15:40:35.091Z,13.60
2023-05-21T15:43:02.118Z,9.73
2023-05-21T15:45:28.882Z,8.93
2023-05-21T15:47:55.758Z,10.88
2023-05-21T15:50:22.531Z,8.57
2023-05-21T15:52:51.563Z,9.60
2023-05-21T15:55:20.180Z,9.10
2023-05-21T15:57:46.982Z,7.68
2023-05-21T16:00:14.055Z,10.43
2023-05-21T16:02:41.888Z,14.83
2023-05-21T16:05:09.152Z,10.27
2023-05-21T16:07:37.949Z,10.75
2023-05-21T16:10:06.052Z,9.90
2023-05-21T16:12:32.853Z,15.15
2023-05-21T16:14:59.657Z,10.87
2023-05-21T16:17:26.637Z,10.00
2023-05-21T16:19:53.496Z,9.13
2023-05-21T16:22:20.812Z,10.25
2023-05-21T16:24:48.091Z,9.32
2023-05-21T16:27:14.890Z,12.47
2023-05-21T16:29:42.415Z,12.55
2023-05-21T16:32:10.454Z,8.80
2023-05-21T16:34:37.256Z,9.18
2023-05-21T16:37:04.184Z,8.20
2023-05-21T16:39:30.914Z,10.97
2023-05-21T16:41:59.591Z,10.82
2023-05-21T16:44:27.062Z,12.20
2023-05-21T16:46:54.157Z,15.40
2023-05-21T16:49:20.946Z,9.13
2023-05-21T16:51:47.814Z,9.70
2023-05-21T16:54:14.560Z,8.75
2023-05-21T16:56:41.300Z,10.65
2023-05-21T16:59:08.136Z,10.38
2023-05-21T17:01:34.888Z,10.35
2023-05-21T17:06:28.542Z,11.27
2023-05-21T17:08:55.433Z,10.70
2023-05-21T17:11:22.163Z,9.52
2023-05-21T17:13:49.019Z,10.25
2023-05-21T17:16:15.841Z,11.47
2023-05-21T17:18:42.715Z,9.60
2023-05-21T17:21:10.443Z,9.90
2023-05-21T17:23:37.300Z,9.90
2023-05-21T17:26:06.895Z,9.15
2023-05-21T17:28:33.653Z,9.87
2023-05-21T17:31:01.714Z,13.52
2023-05-21T17:33:28.725Z,10.85
2023-05-21T17:35:56.980Z,9.95
2023-05-21T17:38:23.710Z,14.07
2023-05-21T17:40:50.701Z,10.83
2023-05-21T17:43:17.945Z,13.80
2023-05-21T17:45:44.677Z,12.02
2023-05-21T17:48:11.907Z,15.23
2023-05-21T17:50:38.804Z,12.50
2023-05-21T17:53:05.779Z,15.17
2023-05-21T17:55:32.567Z,13.45
2023-05-21T17:57:59.366Z,12.23
2023-05-21T18:00:26.102Z,15.50
2023-05-21T18:02:52.922Z,17.17
2023-05-21T18:05:19.974Z,16.00
2023-05-21T18:07:46.684Z,15.82
2023-05-21T18:10:15.421Z,15.48
2023-05-21T18:12:42.432Z,15.18
2023-05-21T18:15:09.483Z,13.40
2023-05-21T18:17:36.271Z,14.17
2023-05-21T18:20:04.416Z,14.80
2023-05-21T18:22:31.197Z,16.90
2023-05-21T18:24:58.149Z,12.93
2023-05-21T18:27:24.930Z,15.55
2023-05-21T18:29:52.077Z,15.67
2023-05-21T18:32:18.940Z,16.27
2023-05-21T18:34:46.515Z,13.98
2023-05-21T18:37:14.786Z,16.60
2023-05-21T18:39:41.570Z,15.50
2023-05-21T18:42:13.247Z,16.20
2023-05-21T18:44:41.128Z,14.77
2023-05-21T18:47:08.188Z,15.07
2023-05-21T18:49:36.279Z,14.30
2023-05-21T18:52:04.646Z,18.00
2023-05-21T18:54:31.505Z,16.70
2023-05-21T18:57:00.945Z,16.98
2023-05-21T18:59:29.088Z,16.98
2023-05-21T19:01:56.076Z,19.52
2023-05-21T19:04:23.003Z,22.25
2023-05-21T19:06:50.002Z,18.57
2023-05-21T19:09:17.034Z,20.35
2023-05-21T19:11:44.080Z,21.50
2023-05-21T19:14:10.827Z,19.77
2023-05-21T19:16:37.658Z,19.45
2023-05-21T19:19:04.596Z,20.30
2023-05-21T19:21:32.277Z,21.05
2023-05-21T19:23:59.203Z,19.23
2023-05-21T19:26:26.069Z,16.73
2023-05-21T19:28:54.264Z,20.55
2023-05-21T19:31:22.406Z,19.40
2023-05-21T19:33:49.398Z,19.85
2023-05-21T19:36:16.406Z,20.25
2023-05-21T19:38:50.119Z,24.33
2023-05-21T19:41:17.661Z,20.08
2023-05-21T19:43:45.422Z,18.07
2023-05-21T19:46:12.322Z,19.00
2023-05-21T19:48:39.282Z,21.00
2023-05-21T19:51:06.159Z,21.92
2023-05-21T19:53:33.063Z,21.13
2023-05-21T19:56:00.001Z,20.00
2023-05-21T19:58:29.412Z,17.95
2023-05-21T20:00:59.100Z,24.63
2023-05-21T20:03:26.653Z,18.48
2023-05-21T20:05:53.827Z,20.42
2023-05-21T20:08:20.754Z,20.07
2023-05-21T20:10:51.208Z,19.23
2023-05-21T20:13:18.750Z,23.90
2023-05-21T20:15:45.578Z,19.60
2023-05-21T20:18:12.902Z,21.15
2023-05-21T20:20:41.210Z,19.07
2023-05-21T20:23:08.540Z,20.15
2023-05-21T20:25:35.308Z,21.02
2023-05-21T20:28:03.384Z,20.63
2023-05-21T20:30:34.665Z,17.13
2023-05-21T20:33:02.646Z,17.00
2023-05-21T20:35:29.996Z,23.05
2023-05-21T20:37:56.731Z,17.70
2023-05-21T20:40:23.588Z,21.02
2023-05-21T20:42:53.441Z,17.27
2023-05-21T20:45:21.084Z,18.67
2023-05-21T20:47:49.628Z,19.67
2023-05-21T20:50:17.525Z,25.60
2023-05-21T20:52:46.996Z,18.20
2023-05-21T20:55:14.393Z,16.50
2023-05-21T20:57:41.503Z,21.50
2023-05-21T21:00:10.613Z,23.05
2023-05-21T21:02:38.678Z,16.35
2023-05-21T21:05:06.170Z,19.55
2023-05-21T21:07:34.026Z,24.50
2023-05-21T21:10:01.346Z,20.03
2023-05-21T21:12:28.411Z,20.17
2023-05-21T21:14:55.655Z,20.08
2023-05-21T21:17:23.168Z,21.10
2023-05-21T21:19:50.145Z,18.83
2023-05-21T21:22:18.093Z,18.60
2023-05-21T21:24:45.507Z,20.50
2023-05-21T21:27:12.375Z,22.25
2023-05-21T21:29:39.185Z,20.05
2023-05-21T21:32:06.430Z,20.70
2023-05-21T21:34:33.206Z,15.83
2023-05-21T21:36:59.966Z,19.05
2023-05-21T21:39:26.865Z,23.77
2023-05-21T21:41:53.744Z,22.75
2023-05-21T21:44:20.549Z,20.73
2023-05-21T21:46:47.646Z,19.53
2023-05-21T21:49:17.217Z,20.88
2023-05-21T21:51:44.739Z,24.17
2023-05-21T21:54:11.954Z,21.67
2023-05-21T21:56:38.729Z,20.13
2023-05-21T21:59:05.823Z,21.83
2023-05-21T22:01:32.799Z,19.73
2023-05-21T22:03:59.669Z,21.63
2023-05-21T22:06:27.579Z,21.90
2023-05-21T22:08:54.677Z,29.23
2023-05-21T22:11:21.879Z,22.27
2023-05-21T22:13:48.856Z,24.90
2023-05-21T22:16:15.700Z,23.67
2023-05-21T22:18:42.528Z,24.02
2023-05-21T22:21:10.446Z,23.42
2023-05-21T22:23:38.517Z,23.93
2023-05-21T22:26:06.283Z,21.95
2023-05-21T22:28:33.180Z,21.00
2023-05-21T22:31:00.029Z,22.67
2023-05-21T22:33:26.969Z,23.80
2023-05-21T22:35:54.580Z,30.33
2023-05-21T22:38:21.945Z,25.48
2023-05-21T22:40:48.825Z,21.90
2023-05-21T22:43:15.862Z,21.55
2023-05-21T22:45:44.252Z,24.83
2023-05-21T22:48:11.083Z,20.60
2023-05-21T22:50:38.658Z,25.42
2023-05-21T22:53:06.526Z,25.33
2023-05-21T22:55:33.341Z,26.38
2023-05-21T22:58:00.170Z,29.75
2023-05-21T23:00:27.389Z,23.77
2023-05-21T23:02:54.676Z,24.75
2023-05-21T23:05:22.289Z,26.00
2023-05-21T23:07:49.375Z,31.30
2023-05-21T23:10:16.377Z,21.23
2023-05-21T23:12:43.308Z,26.93
2023-05-21T23:15:10.790Z,25.40
2023-05-21T23:17:39.180Z,23.30
2023-05-21T23:20:07.509Z,23.23
2023-05-21T23:22:34.853Z,29.65
2023-05-21T23:25:01.798Z,19.93
2023-05-21T23:27:29.182Z,22.17
2023-05-21T23:29:56.341Z,25.17
2023-05-21T23:32:23.649Z,24.67
2023-05-21T23:34:50.638Z,25.58
2023-05-21T23:37:17.572Z,25.00
2023-05-21T23:39:48.078Z,36.20
2023-05-21T23:42:18.073Z,31.50
2023-05-21T23:44:45.137Z,27.38
2023-05-21T23:47:12.089Z,28.65
2023-05-21T23:49:39.425Z,28.23
2023-05-21T23:52:06.813Z,29.90
2023-05-21T23:54:33.579Z,32.55
2023-05-21T23:57:02.056Z,25.13
2023-05-21T23:59:29.153Z,30.65
